LIPE/BLQ METAR and TAF weather

Enter ICAO airport designator
Station Type Date Time Source
LIPE METAR 2022/05/26 05:20 UTC NOAA

LIPE 260520Z 20005KT 9999 SCT050 19/17 Q1018


Station Type Date Time Source
LIPE Decoded METAR 2022/05/26 05:20 UTC NOAA

Bologna / Borgo Panigale, Italy (LIPE) 44-32N 011-18E 49M
May 26, 2022 - 01:20 AM EDT / 2022.05.26 0520 UTC
Wind: from the SSW (200 degrees) at 6 MPH (5 KT):0
Visibility: greater than 7 mile(s):0
Sky conditions: partly cloudy
Temperature: 66 F (19 C)
Dew Point: 62 F (17 C)
Relative Humidity: 88%
Pressure (altimeter): 30.06 in. Hg (1018 hPa)
ob: LIPE 260520Z 20005KT 9999 SCT050 19/17 Q1018
cycle: 5

Station Type Date Time Source
LIPE TAF 2022/05/26 06:24 UTC NOAA

TAF LIPE 260500Z 2606/2706 VRB05KT 9999 FEW040
BECMG 2610/2612 09011KT
TEMPO 2613/2616 TSRA
BECMG 2617/2619 VRB05KT

Example: see airport list